Time;durP1;ratioP1;P1;durP2;ratioP2;P2;SDS_P1;SDS_P2;PMS_P1;PMS_P2;Temp;Humidity;BMP_temperature;BMP_pressure;BME280_temperature;BME280_humidity;BME280_pressure;Samples;Min_cycle;Max_cycle;Signal;HPM_P1;HPM_P2
2023/03/03 00:02:17;;;;;;;32.70;14.00;;;1.70;99.90;;;;;;5046963;28;20385;-63
2023/03/03 00:04:43;;;;;;;37.10;14.65;;;1.70;99.90;;;;;;5050323;28;20044;-63
2023/03/03 00:07:10;;;;;;;30.10;13.63;;;1.70;99.90;;;;;;5035172;28;20045;-63
2023/03/03 00:09:36;;;;;;;46.92;16.05;;;1.70;99.90;;;;;;5034284;28;20052;-62
2023/03/03 00:12:20;;;;;;;37.90;15.45;;;1.70;99.90;;;;;;5043298;28;20033;-63
2023/03/03 00:14:45;;;;;;;39.25;14.60;;;1.70;99.90;;;;;;5043348;28;20128;-65
2023/03/03 00:17:22;;;;;;;35.28;14.20;;;1.70;99.90;;;;;;5044316;28;20128;-63
2023/03/03 00:19:48;;;;;;;37.08;14.52;;;1.60;99.90;;;;;;5039503;28;20049;-64
2023/03/03 00:22:34;;;;;;;86.68;16.63;;;1.60;99.90;;;;;;5043835;28;20124;-63
2023/03/03 00:25:32;;;;;;;42.60;14.77;;;1.60;99.90;;;;;;5041428;28;20110;-64
2023/03/03 00:28:12;;;;;;;61.25;17.05;;;1.50;99.90;;;;;;5042728;28;20123;-63
2023/03/03 00:30:37;;;;;;;50.65;16.13;;;1.60;99.90;;;;;;5050492;28;20449;-62
2023/03/03 00:33:26;;;;;;;53.00;16.08;;;1.60;99.90;;;;;;5051477;28;20116;-63
2023/03/03 00:35:52;;;;;;;40.90;15.85;;;1.60;99.90;;;;;;5038404;28;20130;-63
2023/03/03 00:38:18;;;;;;;48.55;16.75;;;1.60;99.90;;;;;;5049018;28;20079;-63
2023/03/03 00:40:45;;;;;;;58.55;18.58;;;1.60;99.90;;;;;;5054613;28;20527;-63
2023/03/03 00:43:24;;;;;;;53.40;16.58;;;1.60;99.90;;;;;;5053672;28;20043;-62
2023/03/03 00:45:52;;;;;;;63.35;17.38;;;1.60;99.90;;;;;;5037406;28;20128;-62
2023/03/03 00:48:26;;;;;;;41.28;17.48;;;1.60;99.90;;;;;;5043081;28;20112;-65
2023/03/03 00:50:54;;;;;;;45.92;17.13;;;1.60;99.90;;;;;;5036488;28;20038;-64
2023/03/03 00:53:22;;;;;;;80.80;18.83;;;1.60;99.90;;;;;;5049448;28;20542;-62
2023/03/03 00:55:49;;;;;;;42.22;17.15;;;1.60;99.90;;;;;;5054913;28;20049;-63
2023/03/03 00:58:17;;;;;;;48.95;17.73;;;1.60;99.90;;;;;;5048220;28;20132;-62
2023/03/03 01:00:43;;;;;;;64.75;18.48;;;1.70;99.90;;;;;;5032695;28;20056;-62
2023/03/03 01:03:13;;;;;;;90.25;18.95;;;1.70;99.90;;;;;;5042801;28;20052;-63
2023/03/03 01:05:39;;;;;;;95.97;18.48;;;1.70;99.90;;;;;;5039195;28;20037;-63
2023/03/03 01:08:05;;;;;;;95.85;20.25;;;1.70;99.90;;;;;;5049071;28;20070;-63
2023/03/03 01:10:34;;;;;;;61.08;18.95;;;1.70;99.90;;;;;;5052723;28;20040;-62
2023/03/03 01:13:00;;;;;;;51.97;18.38;;;1.80;99.90;;;;;;5054379;28;20037;-62
2023/03/03 01:15:26;;;;;;;52.80;17.77;;;1.70;99.90;;;;;;5050741;28;20098;-62
2023/03/03 01:17:51;;;;;;;48.80;17.60;;;1.70;99.90;;;;;;5053203;28;20049;-62
2023/03/03 01:20:17;;;;;;;63.20;20.25;;;1.70;99.90;;;;;;5045935;28;20342;-63
2023/03/03 01:22:43;;;;;;;58.97;19.45;;;1.80;99.90;;;;;;5051627;28;20037;-63
2023/03/03 01:25:09;;;;;;;56.35;18.33;;;1.70;99.90;;;;;;5047768;28;20041;-63
2023/03/03 01:27:35;;;;;;;67.38;19.98;;;1.70;99.90;;;;;;5044025;28;20045;-64
2023/03/03 01:30:05;;;;;;;60.72;19.85;;;1.70;99.90;;;;;;5034472;28;20055;-65
2023/03/03 01:32:31;;;;;;;64.32;20.50;;;1.70;99.90;;;;;;5036312;28;20091;-63
2023/03/03 01:34:56;;;;;;;62.85;19.63;;;1.80;99.90;;;;;;5052850;28;20526;-63
2023/03/03 01:37:22;;;;;;;59.67;19.13;;;1.70;99.90;;;;;;5047064;28;20037;-64
2023/03/03 01:39:52;;;;;;;68.70;20.17;;;1.70;99.90;;;;;;5042072;28;20049;-65
2023/03/03 01:42:17;;;;;;;58.50;19.50;;;1.80;99.90;;;;;;5041206;28;20045;-62
2023/03/03 01:44:43;;;;;;;77.60;21.75;;;1.80;99.90;;;;;;5032910;28;20060;-65
2023/03/03 01:47:27;;;;;;;63.28;19.60;;;1.80;99.90;;;;;;5029584;28;20033;-62
2023/03/03 01:49:52;;;;;;;83.05;20.13;;;1.80;99.90;;;;;;5045503;28;20048;-62
2023/03/03 01:52:26;;;;;;;69.60;20.38;;;1.80;99.90;;;;;;5053936;28;20033;-62
2023/03/03 01:54:55;;;;;;;82.82;21.88;;;1.80;99.90;;;;;;5052036;28;20041;-63
2023/03/03 01:57:32;;;;;;;64.25;18.80;;;1.80;99.90;;;;;;5051247;28;20045;-62
2023/03/03 02:00:01;;;;;;;115.05;23.48;;;1.90;99.90;;;;;;5036193;28;20090;-63
2023/03/03 02:02:27;;;;;;;69.45;19.92;;;1.80;99.90;;;;;;5031763;28;20201;-63
2023/03/03 02:04:53;;;;;;;68.30;21.33;;;1.90;99.90;;;;;;5047085;28;20037;-62
2023/03/03 02:07:21;;;;;;;94.22;22.23;;;1.90;99.90;;;;;;5053599;28;20477;-62
2023/03/03 02:10:11;;;;;;;70.93;21.85;;;1.80;99.90;;;;;;5052990;28;20045;-64
2023/03/03 02:12:51;;;;;;;89.43;21.13;;;1.80;99.90;;;;;;5048327;28;20101;-63
2023/03/03 02:15:27;;;;;;;;;;;1.80;99.90;;;;;;5049848;28;20051;-63
2023/03/03 02:17:56;;;;;;;86.95;20.75;;;1.80;99.90;;;;;;5047754;28;20379;-63
2023/03/03 02:20:38;;;;;;;63.55;19.00;;;1.70;99.90;;;;;;5051106;28;20029;-62
2023/03/03 02:23:08;;;;;;;74.40;20.58;;;1.80;99.90;;;;;;5045668;28;20455;-62
2023/03/03 02:25:54;;;;;;;73.88;19.15;;;1.70;99.90;;;;;;5044249;28;20037;-63
2023/03/03 02:28:22;;;;;;;60.20;20.48;;;1.80;99.90;;;;;;5048043;28;20388;-62
2023/03/03 02:30:47;;;;;;;78.18;20.35;;;1.80;99.90;;;;;;5031091;28;20152;-65
2023/03/03 02:33:13;;;;;;;68.32;19.38;;;1.80;99.90;;;;;;5051961;28;20116;-63
2023/03/03 02:35:40;;;;;;;76.70;22.10;;;1.80;99.90;;;;;;5048291;28;20044;-62
2023/03/03 02:38:14;;;;;;;85.00;23.48;;;1.80;99.90;;;;;;5030900;28;20119;-62
2023/03/03 02:40:52;;;;;;;87.03;24.33;;;1.90;99.90;;;;;;5046097;28;20127;-62
2023/03/03 02:43:21;;;;;;;114.18;24.33;;;1.80;99.90;;;;;;5044713;28;20051;-63
2023/03/03 02:45:47;;;;;;;91.18;23.13;;;1.90;99.90;;;;;;5042712;28;20040;-62
2023/03/03 02:48:12;;;;;;;125.78;25.40;;;1.90;99.90;;;;;;5048007;28;20095;-62
2023/03/03 02:50:38;;;;;;;102.07;23.48;;;1.90;99.90;;;;;;5040296;28;20055;-63
2023/03/03 02:53:03;;;;;;;81.57;21.55;;;1.90;99.90;;;;;;5042066;28;20044;-63
2023/03/03 02:55:29;;;;;;;83.20;22.50;;;1.90;99.90;;;;;;5051222;28;20045;-63
2023/03/03 02:57:55;;;;;;;77.22;24.40;;;1.90;99.90;;;;;;5038924;28;20041;-63
2023/03/03 03:00:21;;;;;;;75.05;23.13;;;1.90;99.90;;;;;;5040314;28;20107;-62
2023/03/03 03:02:47;;;;;;;86.90;23.17;;;2.00;99.90;;;;;;5039147;28;20052;-62
2023/03/03 03:05:12;;;;;;;89.20;21.80;;;1.90;99.90;;;;;;5050495;28;20033;-64
2023/03/03 03:07:38;;;;;;;82.72;20.70;;;2.00;99.90;;;;;;5050523;28;20055;-62
2023/03/03 03:10:04;;;;;;;80.18;20.65;;;2.00;99.90;;;;;;5051765;28;20045;-62
2023/03/03 03:12:30;;;;;;;61.72;18.90;;;2.10;99.90;;;;;;5051544;28;20040;-63
2023/03/03 03:14:55;;;;;;;57.90;18.05;;;2.10;99.90;;;;;;5037964;28;20081;-63
2023/03/03 03:17:21;;;;;;;65.13;16.38;;;2.10;99.90;;;;;;5019137;28;20076;-62
2023/03/03 03:19:47;;;;;;;62.33;14.65;;;2.10;99.90;;;;;;5037833;28;20484;-62
2023/03/03 03:22:12;;;;;;;54.58;13.10;;;2.20;99.90;;;;;;5049875;28;20041;-62
2023/03/03 03:24:38;;;;;;;51.28;13.48;;;2.20;99.90;;;;;;5035440;28;20044;-61
2023/03/03 03:27:03;;;;;;;46.80;13.50;;;2.10;99.90;;;;;;5047430;28;20045;-62
2023/03/03 03:29:29;;;;;;;45.35;12.73;;;2.20;99.90;;;;;;5050725;28;20045;-64
2023/03/03 03:31:55;;;;;;;51.15;12.43;;;2.20;99.90;;;;;;5039632;28;20099;-62
2023/03/03 03:34:20;;;;;;;68.80;14.10;;;2.20;99.90;;;;;;5045031;28;20457;-63
2023/03/03 03:36:46;;;;;;;64.70;13.18;;;2.10;99.90;;;;;;5047387;28;20370;-63
2023/03/03 03:39:12;;;;;;;54.10;13.23;;;2.20;99.90;;;;;;5048079;28;20637;-63
2023/03/03 03:41:37;;;;;;;50.47;11.82;;;2.20;99.90;;;;;;5037829;28;20043;-62
2023/03/03 03:44:03;;;;;;;47.60;12.10;;;2.20;99.90;;;;;;5049638;28;20120;-63
2023/03/03 03:46:29;;;;;;;52.85;11.88;;;2.20;99.90;;;;;;5039903;28;20556;-62
2023/03/03 03:48:54;;;;;;;46.20;12.07;;;2.20;99.90;;;;;;5035919;28;20069;-63
2023/03/03 03:51:20;;;;;;;48.67;12.57;;;2.10;99.90;;;;;;5037801;28;20123;-63
2023/03/03 03:53:45;;;;;;;54.90;13.20;;;2.20;99.90;;;;;;5047405;28;20039;-63
2023/03/03 03:56:11;;;;;;;43.33;12.20;;;2.20;99.90;;;;;;5035757;28;20136;-63
2023/03/03 03:58:36;;;;;;;48.83;11.32;;;2.20;99.90;;;;;;5046731;28;20428;-64
2023/03/03 04:01:04;;;;;;;44.78;10.32;;;2.20;99.90;;;;;;5043254;28;20037;-62
2023/03/03 04:03:30;;;;;;;63.40;10.95;;;2.10;99.90;;;;;;5040312;28;20041;-64
2023/03/03 04:05:55;;;;;;;55.92;10.60;;;2.10;99.90;;;;;;5047539;28;20580;-62
2023/03/03 04:08:21;;;;;;;69.07;11.60;;;2.10;99.90;;;;;;5048131;28;20396;-62
2023/03/03 04:10:46;;;;;;;48.70;9.88;;;2.10;99.90;;;;;;5043647;28;20526;-62
2023/03/03 04:13:12;;;;;;;51.78;8.18;;;2.20;99.90;;;;;;5048846;28;20111;-63
2023/03/03 04:15:37;;;;;;;41.20;7.90;;;2.20;99.90;;;;;;5047418;28;20051;-63
2023/03/03 04:18:03;;;;;;;66.45;9.88;;;2.20;99.90;;;;;;5043406;28;20426;-63
2023/03/03 04:20:29;;;;;;;42.67;9.25;;;2.10;99.90;;;;;;5039095;28;20393;-62
2023/03/03 04:22:56;;;;;;;53.83;10.20;;;2.10;99.90;;;;;;5031666;28;20045;-62
2023/03/03 04:25:21;;;;;;;47.33;8.80;;;2.20;99.90;;;;;;5039368;28;20065;-62
2023/03/03 04:27:47;;;;;;;81.15;10.93;;;2.10;99.90;;;;;;5044160;28;20065;-63
2023/03/03 04:30:14;;;;;;;80.10;11.18;;;2.20;99.90;;;;;;5044773;28;20811;-63
2023/03/03 04:32:40;;;;;;;72.95;10.73;;;2.10;99.90;;;;;;5048842;28;20119;-64
2023/03/03 04:35:06;;;;;;;107.15;13.77;;;2.10;99.90;;;;;;5037220;28;20039;-65
2023/03/03 04:37:32;;;;;;;54.78;10.13;;;2.10;99.90;;;;;;5049211;28;20029;-62
2023/03/03 04:39:58;;;;;;;99.95;13.02;;;2.10;99.90;;;;;;5049243;28;20074;-62
2023/03/03 04:42:23;;;;;;;65.72;11.63;;;2.00;99.90;;;;;;5031062;28;20171;-63
2023/03/03 04:44:49;;;;;;;73.40;11.52;;;2.00;99.90;;;;;;5042323;28;20052;-64
2023/03/03 04:47:14;;;;;;;58.25;10.77;;;2.10;99.90;;;;;;5045176;28;20040;-62
2023/03/03 04:49:40;;;;;;;43.03;9.52;;;2.00;99.90;;;;;;5042124;28;20044;-63
2023/03/03 04:52:06;;;;;;;40.67;9.48;;;2.10;99.90;;;;;;5038470;28;20033;-63
2023/03/03 04:54:31;;;;;;;59.50;10.32;;;2.10;99.90;;;;;;5044515;28;20040;-64
2023/03/03 04:56:57;;;;;;;65.63;11.95;;;2.10;99.90;;;;;;5035374;28;20067;-63
2023/03/03 04:59:22;;;;;;;45.38;10.18;;;2.10;99.90;;;;;;5049549;28;20059;-65
2023/03/03 05:01:49;;;;;;;64.20;10.70;;;2.10;99.90;;;;;;5030043;28;20496;-63
2023/03/03 05:04:15;;;;;;;102.20;12.50;;;2.00;99.90;;;;;;5048514;28;20048;-64
2023/03/03 05:06:41;;;;;;;63.22;11.40;;;2.00;99.90;;;;;;5047929;28;20037;-62
2023/03/03 05:09:06;;;;;;;26.10;9.00;;;2.00;99.90;;;;;;5047533;28;20122;-63
2023/03/03 05:11:32;;;;;;;50.38;10.57;;;2.00;99.90;;;;;;5046409;28;20156;-63
2023/03/03 05:13:58;;;;;;;104.32;12.65;;;2.00;99.90;;;;;;5039317;28;20029;-63
2023/03/03 05:16:23;;;;;;;83.22;13.30;;;2.00;99.90;;;;;;5039754;28;20033;-63
2023/03/03 05:18:49;;;;;;;107.68;15.23;;;1.90;99.90;;;;;;5052080;28;20140;-63
2023/03/03 05:21:14;;;;;;;53.17;9.95;;;1.90;99.90;;;;;;5052815;28;20535;-64
2023/03/03 05:23:40;;;;;;;53.03;11.10;;;1.90;99.90;;;;;;5047464;28;20076;-63
2023/03/03 05:26:05;;;;;;;51.03;10.63;;;1.90;99.90;;;;;;5026165;28;20041;-63
2023/03/03 05:28:32;;;;;;;44.40;10.43;;;1.90;99.90;;;;;;5052786;28;20033;-63
2023/03/03 05:30:57;;;;;;;47.33;10.75;;;1.90;99.90;;;;;;5040406;28;20041;-62
2023/03/03 05:33:23;;;;;;;56.22;11.23;;;1.90;99.90;;;;;;5045086;28;20387;-66
2023/03/03 05:35:56;;;;;;;41.33;9.50;;;2.00;99.90;;;;;;5040694;28;20041;-63
2023/03/03 05:38:22;;;;;;;53.95;10.02;;;2.00;99.90;;;;;;5034929;28;20116;-62
2023/03/03 05:40:48;;;;;;;60.67;10.07;;;2.00;99.90;;;;;;5036764;28;20091;-63
2023/03/03 05:43:13;;;;;;;59.10;11.10;;;1.90;99.90;;;;;;5052508;28;20037;-63
2023/03/03 05:45:39;;;;;;;126.45;12.65;;;2.00;99.90;;;;;;5039149;28;20432;-64
2023/03/03 05:48:05;;;;;;;93.97;11.48;;;1.90;99.90;;;;;;5044180;28;20057;-63
2023/03/03 05:50:31;;;;;;;47.53;8.57;;;1.90;99.90;;;;;;5052789;28;20052;-63
2023/03/03 05:52:57;;;;;;;123.47;12.32;;;1.90;99.90;;;;;;5046309;28;20095;-62
2023/03/03 05:55:23;;;;;;;76.95;10.13;;;1.80;99.90;;;;;;5046670;28;20376;-62
2023/03/03 05:57:48;;;;;;;61.38;9.13;;;1.80;99.90;;;;;;5042314;28;20052;-62
2023/03/03 06:00:15;;;;;;;99.65;11.43;;;1.80;99.90;;;;;;5042656;28;20057;-62
2023/03/03 06:02:41;;;;;;;129.38;13.07;;;1.80;99.90;;;;;;5047601;28;20127;-62
2023/03/03 06:05:08;;;;;;;139.73;13.40;;;1.70;99.90;;;;;;5049265;28;20052;-63
2023/03/03 06:07:34;;;;;;;114.10;12.20;;;1.60;99.90;;;;;;5053598;28;20033;-63
2023/03/03 06:10:00;;;;;;;94.45;10.07;;;1.60;99.90;;;;;;5050691;28;20048;-64
2023/03/03 06:12:26;;;;;;;124.22;13.18;;;1.60;99.90;;;;;;5048111;28;20025;-63
2023/03/03 06:14:51;;;;;;;96.53;10.75;;;1.50;99.90;;;;;;5033918;28;20045;-66
2023/03/03 06:17:17;;;;;;;56.53;7.63;;;1.50;99.90;;;;;;5030370;28;20063;-64
2023/03/03 06:19:42;;;;;;;108.82;11.27;;;1.50;99.90;;;;;;5033526;28;20091;-63
2023/03/03 06:22:08;;;;;;;31.63;6.90;;;1.50;99.90;;;;;;5033036;28;20124;-63
2023/03/03 06:24:34;;;;;;;51.92;8.85;;;1.50;99.90;;;;;;5043321;28;20043;-63
2023/03/03 06:27:00;;;;;;;65.88;9.23;;;1.40;99.90;;;;;;5040341;28;20127;-66
2023/03/03 06:29:27;;;;;;;53.55;7.93;;;1.50;99.90;;;;;;5041695;28;20040;-65
2023/03/03 06:31:53;;;;;;;78.95;9.25;;;1.40;99.90;;;;;;5040846;28;20397;-63
2023/03/03 06:34:19;;;;;;;77.43;9.48;;;1.40;99.90;;;;;;5046236;28;20071;-62
2023/03/03 06:36:45;;;;;;;147.07;13.30;;;1.50;99.90;;;;;;5051444;28;20037;-62
2023/03/03 06:39:10;;;;;;;30.92;6.60;;;1.40;99.90;;;;;;5039906;28;20053;-63
2023/03/03 06:41:36;;;;;;;60.72;8.20;;;1.40;99.90;;;;;;5043883;28;20056;-63
2023/03/03 06:44:02;;;;;;;69.40;9.30;;;1.40;99.90;;;;;;5042090;28;20711;-63
2023/03/03 06:46:28;;;;;;;68.55;8.88;;;1.40;99.90;;;;;;5042691;28;20140;-64
2023/03/03 06:48:53;;;;;;;87.25;9.95;;;1.50;99.90;;;;;;5036536;28;20038;-63
2023/03/03 06:51:38;;;;;;;82.82;9.20;;;1.40;99.90;;;;;;5030100;28;20065;-62
2023/03/03 06:54:19;;;;;;;48.38;7.57;;;1.50;99.90;;;;;;5031707;28;20041;-63
2023/03/03 06:56:45;;;;;;;67.82;9.52;;;1.50;99.90;;;;;;5029756;28;20409;-63
2023/03/03 06:59:19;;;;;;;95.30;11.32;;;1.50;99.90;;;;;;5038440;28;20057;-64
2023/03/03 07:01:47;;;;;;;121.50;13.05;;;1.50;99.90;;;;;;5046693;28;20686;-63
2023/03/03 07:04:30;;;;;;;82.25;11.48;;;1.60;99.90;;;;;;5047518;28;20029;-63
2023/03/03 07:06:58;;;;;;;58.63;8.52;;;1.60;99.90;;;;;;5040837;28;20044;-64
2023/03/03 07:09:26;;;;;;;128.23;13.18;;;1.60;99.90;;;;;;5041868;28;20043;-64
2023/03/03 07:11:59;;;;;;;86.80;10.30;;;1.60;99.90;;;;;;5044160;28;20041;-63
2023/03/03 07:14:24;;;;;;;81.07;10.13;;;1.70;99.90;;;;;;5040600;28;20037;-63
2023/03/03 07:16:59;;;;;;;60.78;9.57;;;1.70;99.90;;;;;;5038504;28;20041;-63
2023/03/03 07:19:34;;;;;;;26.73;7.32;;;1.80;99.90;;;;;;5040734;28;20134;-63
2023/03/03 07:22:21;;;;;;;63.28;9.80;;;1.90;99.90;;;;;;5044035;28;20052;-62
2023/03/03 07:24:52;;;;;;;53.22;8.70;;;1.90;99.90;;;;;;5049666;28;20044;-65
2023/03/03 07:27:18;;;;;;;61.33;9.23;;;1.90;99.90;;;;;;5048696;28;20028;-64
2023/03/03 07:29:50;;;;;;;130.65;13.32;;;1.90;99.90;;;;;;5038003;28;20450;-65
2023/03/03 07:32:22;;;;;;;120.25;12.88;;;1.90;99.90;;;;;;5048760;28;20504;-64
2023/03/03 07:34:49;;;;;;;69.53;9.35;;;1.90;99.90;;;;;;5043729;28;20043;-64
2023/03/03 07:37:27;;;;;;;43.67;8.48;;;1.90;99.90;;;;;;5043889;28;20052;-62
2023/03/03 07:39:54;;;;;;;113.47;11.10;;;2.00;99.90;;;;;;5031097;28;20167;-63
2023/03/03 07:42:40;;;;;;;79.45;9.88;;;2.10;99.90;;;;;;5043560;28;20473;-64
2023/03/03 07:45:25;;;;;;;71.80;8.57;;;2.20;99.90;;;;;;5033434;28;20239;-64
2023/03/03 07:47:50;;;;;;;85.55;9.10;;;2.20;99.90;;;;;;5040846;28;20475;-64
2023/03/03 07:50:21;;;;;;;63.75;8.35;;;2.20;99.90;;;;;;5050279;28;20076;-63
2023/03/03 07:52:58;;;;;;;40.10;8.48;;;2.30;99.90;;;;;;5045009;28;20107;-63
2023/03/03 07:55:35;;;;;;;55.42;7.88;;;2.40;99.90;;;;;;5051550;28;20051;-63
2023/03/03 07:58:10;;;;;;;46.22;6.50;;;2.40;99.90;;;;;;5048002;28;20052;-65
2023/03/03 08:00:38;;;;;;;56.20;9.02;;;2.40;99.90;;;;;;5046992;28;20067;-64
2023/03/03 08:03:11;;;;;;;82.13;9.23;;;2.40;99.90;;;;;;5042501;28;20114;-64
2023/03/03 08:05:48;;;;;;;39.20;6.35;;;2.40;99.90;;;;;;5043294;28;20045;-63
2023/03/03 08:08:35;;;;;;;46.85;7.47;;;2.40;99.90;;;;;;5039340;28;20029;-63
2023/03/03 08:11:02;;;;;;;29.00;6.30;;;2.40;99.90;;;;;;5031721;28;20393;-63
2023/03/03 08:13:36;;;;;;;39.50;6.10;;;2.40;99.90;;;;;;5034893;28;20123;-64
2023/03/03 08:16:07;;;;;;;38.95;5.32;;;2.40;99.90;;;;;;5034509;28;20041;-63
2023/03/03 08:18:50;;;;;;;19.83;5.03;;;2.50;99.90;;;;;;5039596;28;20132;-62
2023/03/03 08:21:21;;;;;;;29.15;5.28;;;2.60;99.90;;;;;;5035986;28;20052;-63
2023/03/03 08:23:50;;;;;;;55.83;6.18;;;2.60;99.90;;;;;;5043879;28;20491;-63
2023/03/03 08:26:25;;;;;;;47.40;6.47;;;2.70;99.90;;;;;;5039825;28;20042;-64
2023/03/03 08:28:52;;;;;;;13.15;3.83;;;2.70;99.90;;;;;;5044243;28;20037;-63
2023/03/03 08:31:18;;;;;;;30.25;5.20;;;2.80;99.90;;;;;;5039690;28;20045;-62
2023/03/03 08:33:45;;;;;;;71.85;8.18;;;2.80;99.90;;;;;;5048343;28;20037;-64
2023/03/03 08:36:11;;;;;;;19.10;5.20;;;2.80;99.90;;;;;;5043129;28;20462;-63
2023/03/03 08:38:38;;;;;;;24.85;5.47;;;3.00;99.90;;;;;;5037963;28;20053;-63
2023/03/03 08:41:04;;;;;;;47.38;6.53;;;3.10;99.90;;;;;;5043120;28;20076;-65
2023/03/03 08:43:30;;;;;;;16.13;4.68;;;3.10;99.90;;;;;;5043441;28;20165;-66
2023/03/03 08:46:00;;;;;;;29.73;5.22;;;3.10;99.90;;;;;;5043909;28;20127;-63
2023/03/03 08:48:27;;;;;;;39.83;7.75;;;3.20;99.90;;;;;;5038104;28;20079;-64
2023/03/03 08:50:53;;;;;;;17.08;5.32;;;3.30;99.90;;;;;;5045227;28;20045;-64
2023/03/03 08:53:20;;;;;;;27.50;6.68;;;3.40;99.90;;;;;;5035354;28;20037;-62
2023/03/03 08:55:46;;;;;;;20.80;5.18;;;3.50;99.90;;;;;;5052628;28;20427;-64
2023/03/03 08:58:13;;;;;;;7.22;4.40;;;3.80;99.90;;;;;;5042498;28;20406;-64
2023/03/03 09:00:39;;;;;;;14.93;4.47;;;4.00;99.90;;;;;;5049179;28;20071;-64
2023/03/03 09:03:06;;;;;;;6.60;3.78;;;4.10;99.90;;;;;;5051584;28;20128;-64
2023/03/03 09:05:33;;;;;;;7.90;3.95;;;4.20;99.90;;;;;;5040157;28;20099;-65
2023/03/03 09:07:59;;;;;;;4.75;3.58;;;4.20;99.90;;;;;;5041636;28;20124;-63
2023/03/03 09:10:28;;;;;;;6.25;3.80;;;4.20;99.90;;;;;;5034851;28;20052;-64
2023/03/03 09:12:57;;;;;;;5.03;3.85;;;4.10;99.90;;;;;;5032603;28;20044;-62
2023/03/03 09:15:28;;;;;;;6.18;4.22;;;4.10;99.90;;;;;;5049512;28;20072;-66
2023/03/03 09:17:58;;;;;;;4.63;3.90;;;4.10;99.90;;;;;;5032143;28;20036;-64
2023/03/03 09:20:37;;;;;;;;;;;4.10;99.90;;;;;;5043288;28;20041;-64
2023/03/03 09:23:24;;;;;;;6.07;3.75;;;4.00;99.90;;;;;;5038408;28;20476;-64
2023/03/03 09:25:51;;;;;;;11.32;4.10;;;4.00;99.90;;;;;;5032876;28;20041;-63
2023/03/03 09:28:29;;;;;;;6.22;3.83;;;4.00;99.90;;;;;;5038114;28;20079;-63
2023/03/03 09:31:00;;;;;;;8.40;4.15;;;3.90;99.90;;;;;;5035839;28;20040;-63
2023/03/03 09:33:45;;;;;;;9.73;3.95;;;3.90;99.90;;;;;;5042798;28;20053;-64
2023/03/03 09:36:26;;;;;;;7.07;4.22;;;3.90;99.90;;;;;;5037014;28;20052;-64
2023/03/03 09:38:54;;;;;;;5.50;4.28;;;3.90;99.90;;;;;;5047033;28;20484;-64
2023/03/03 09:42:01;;;;;;;6.93;4.20;;;3.90;99.90;;;;;;5051573;28;20045;-63
2023/03/03 09:44:52;;;;;;;9.32;4.57;;;3.90;99.90;;;;;;5038556;28;20082;-63
2023/03/03 09:47:42;;;;;;;7.78;4.68;;;3.90;99.90;;;;;;5046947;28;20062;-64
2023/03/03 09:50:28;;;;;;;11.82;7.68;;;4.00;99.90;;;;;;5050526;28;20041;-63
2023/03/03 09:53:17;;;;;;;9.00;5.22;;;4.00;99.90;;;;;;5043927;28;20045;-64
2023/03/03 09:56:07;;;;;;;6.93;4.43;;;4.00;99.90;;;;;;5048500;28;20049;-63
2023/03/03 09:58:35;;;;;;;12.63;8.13;;;4.10;99.90;;;;;;5034831;28;20057;-64
2023/03/03 10:01:01;;;;;;;9.57;6.18;;;4.10;99.90;;;;;;5036508;28;20061;-64
2023/03/03 10:04:04;;;;;;;11.15;5.32;;;4.20;99.90;;;;;;5041300;28;20084;-64
2023/03/03 10:06:41;;;;;;;6.85;4.28;;;4.30;99.90;;;;;;5031137;28;20057;-62
2023/03/03 10:09:44;;;;;;;6.95;3.85;;;4.40;99.90;;;;;;5045493;28;20112;-63
2023/03/03 10:12:28;;;;;;;6.13;3.97;;;4.50;99.90;;;;;;5026565;28;20055;-63
2023/03/03 10:15:28;;;;;;;5.60;3.70;;;4.50;99.90;;;;;;5035564;28;20047;-66
2023/03/03 10:18:23;;;;;;;7.13;4.30;;;4.60;99.90;;;;;;5046048;28;20052;-64
2023/03/03 10:21:02;;;;;;;7.40;4.45;;;4.70;99.90;;;;;;5053057;28;20040;-64
2023/03/03 10:23:55;;;;;;;7.33;4.37;;;4.80;99.90;;;;;;5043695;28;20485;-65
2023/03/03 10:26:20;;;;;;;7.00;4.15;;;4.80;99.90;;;;;;5040916;28;20346;-66
2023/03/03 10:29:08;;;;;;;6.93;3.92;;;4.90;99.90;;;;;;5041548;28;20068;-64
2023/03/03 10:31:39;;;;;;;6.43;4.10;;;5.00;99.90;;;;;;5028689;28;20120;-64
2023/03/03 10:34:33;;;;;;;9.20;4.00;;;5.10;99.90;;;;;;5040325;28;20095;-64
2023/03/03 10:37:05;;;;;;;6.80;4.00;;;5.20;99.90;;;;;;5035200;28;20119;-64
2023/03/03 10:40:09;;;;;;;7.85;3.55;;;5.30;99.90;;;;;;5040562;28;20595;-64
2023/03/03 10:42:43;;;;;;;7.00;4.55;;;5.30;99.90;;;;;;5030585;28;20128;-66
2023/03/03 10:45:44;;;;;;;7.13;3.78;;;5.30;99.90;;;;;;5031600;28;20079;-65
2023/03/03 10:48:53;;;;;;;6.18;4.03;;;5.40;99.90;;;;;;5025805;28;20056;-66
2023/03/03 10:51:40;;;;;;;8.10;3.70;;;5.50;99.90;;;;;;5044549;28;20576;-63
2023/03/03 10:54:29;;;;;;;10.48;4.15;;;5.60;99.90;;;;;;5043545;28;20040;-64
2023/03/03 10:57:15;;;;;;;5.85;3.50;;;5.60;99.90;;;;;;5038853;28;20156;-65
2023/03/03 11:00:13;;;;;;;6.72;3.40;;;5.70;99.90;;;;;;5033376;28;20428;-63
2023/03/03 11:02:56;;;;;;;5.65;3.25;;;5.80;99.90;;;;;;5037834;28;20037;-67
2023/03/03 11:05:58;;;;;;;5.13;3.55;;;6.00;99.90;;;;;;5051162;28;20041;-63
2023/03/03 11:08:39;;;;;;;4.55;3.05;;;6.20;99.90;;;;;;5042283;28;20119;-64
2023/03/03 11:11:16;;;;;;;4.40;2.90;;;6.30;99.90;;;;;;5035756;28;20072;-66
2023/03/03 11:13:58;;;;;;;5.47;3.05;;;6.50;99.90;;;;;;5040245;28;20429;-64
2023/03/03 11:16:41;;;;;;;6.72;3.50;;;6.80;99.90;;;;;;5029443;28;20037;-64
2023/03/03 11:19:43;;;;;;;5.65;3.08;;;7.00;99.90;;;;;;5041882;28;20389;-65
2023/03/03 11:22:32;;;;;;;10.45;4.55;;;7.10;99.90;;;;;;5050735;28;20507;-64
2023/03/03 11:25:26;;;;;;;7.07;3.55;;;7.30;99.90;;;;;;5049396;28;20044;-63
2023/03/03 11:28:10;;;;;;;6.38;3.60;;;7.30;99.90;;;;;;5041428;28;20053;-64
2023/03/03 11:30:48;;;;;;;8.27;3.60;;;7.20;99.90;;;;;;5040120;28;20143;-64
2023/03/03 11:33:23;;;;;;;6.32;3.65;;;7.40;99.90;;;;;;5050877;28;20045;-64
2023/03/03 11:36:10;;;;;;;7.13;3.63;;;7.60;99.90;;;;;;5051598;28;20408;-63
2023/03/03 11:38:53;;;;;;;5.18;3.00;;;7.70;99.90;;;;;;5033211;28;20056;-64
2023/03/03 11:41:34;;;;;;;5.53;3.05;;;7.90;99.90;;;;;;5046974;28;20135;-63
2023/03/03 11:44:26;;;;;;;6.38;3.97;;;7.90;99.90;;;;;;5047068;28;20056;-63
2023/03/03 11:47:10;;;;;;;6.35;3.25;;;8.00;99.90;;;;;;5028791;28;20037;-63
2023/03/03 11:49:42;;;;;;;5.32;2.92;;;8.00;99.90;;;;;;5039926;28;20040;-64
2023/03/03 11:52:19;;;;;;;6.57;3.30;;;8.10;99.90;;;;;;5046946;28;20052;-65
2023/03/03 11:55:06;;;;;;;5.57;2.80;;;8.30;99.90;;;;;;5028750;28;20049;-66
2023/03/03 11:57:34;;;;;;;4.75;2.90;;;8.40;99.90;;;;;;5028004;28;20382;-63
2023/03/03 12:00:27;;;;;;;4.63;2.90;;;8.40;99.90;;;;;;5031652;28;20056;-65
2023/03/03 12:03:34;;;;;;;4.85;2.53;;;8.40;99.90;;;;;;5034929;28;20227;-65
2023/03/03 12:06:35;;;;;;;4.03;2.70;;;8.50;99.90;;;;;;5025244;28;20037;-63
2023/03/03 12:09:19;;;;;;;5.20;2.63;;;8.50;99.90;;;;;;5045972;28;20453;-63
2023/03/03 12:12:14;;;;;;;3.45;2.10;;;8.60;99.90;;;;;;5041986;28;20037;-64
2023/03/03 12:15:27;;;;;;;5.25;2.67;;;8.70;99.90;;;;;;5044671;28;20373;-63
2023/03/03 12:17:59;;;;;;;5.70;2.30;;;8.70;99.90;;;;;;5012513;28;20165;-64
2023/03/03 12:20:49;;;;;;;4.63;2.40;;;8.90;99.90;;;;;;5029090;28;20046;-63
2023/03/03 12:23:56;;;;;;;4.57;2.20;;;8.90;99.90;;;;;;5043227;28;20690;-63
2023/03/03 12:26:32;;;;;;;4.20;2.05;;;8.80;99.90;;;;;;5026766;28;20057;-65
2023/03/03 12:29:09;;;;;;;2.83;1.55;;;8.90;99.90;;;;;;5048766;28;20124;-64
2023/03/03 12:31:40;;;;;;;4.20;1.48;;;8.90;99.90;;;;;;5031798;28;20041;-62
2023/03/03 12:34:08;;;;;;;3.33;1.35;;;9.00;99.90;;;;;;5033620;28;20041;-63
2023/03/03 12:36:49;;;;;;;3.55;1.20;;;9.20;99.90;;;;;;5036147;28;20172;-63
2023/03/03 12:39:32;;;;;;;1.70;1.30;;;9.00;99.90;;;;;;5051298;28;20043;-65
2023/03/03 12:42:25;;;;;;;4.70;1.38;;;9.10;99.90;;;;;;5044749;28;20045;-64
2023/03/03 12:45:20;;;;;;;2.88;1.42;;;9.10;99.90;;;;;;5051447;28;20069;-64
2023/03/03 12:47:50;;;;;;;4.07;1.60;;;9.00;99.90;;;;;;5048168;28;20572;-65
2023/03/03 12:50:29;;;;;;;4.78;1.50;;;9.00;99.90;;;;;;5035061;28;20058;-65
2023/03/03 12:53:23;;;;;;;3.42;1.30;;;9.00;99.90;;;;;;5036252;28;20153;-64
2023/03/03 12:55:49;;;;;;;3.22;1.50;;;9.00;99.90;;;;;;5043408;28;20068;-64
2023/03/03 12:58:37;;;;;;;1.95;1.35;;;8.90;99.90;;;;;;5034464;28;20072;-63
2023/03/03 13:01:27;;;;;;;4.68;1.20;;;8.80;99.90;;;;;;5045517;28;20473;-63
2023/03/03 13:04:32;;;;;;;3.47;1.20;;;8.80;99.90;;;;;;5033238;28;20127;-64
2023/03/03 13:07:14;;;;;;;2.00;1.05;;;8.80;99.90;;;;;;5042923;28;20036;-62
2023/03/03 13:10:08;;;;;;;1.65;1.13;;;8.70;99.90;;;;;;5048570;28;20041;-62
2023/03/03 13:12:50;;;;;;;1.23;0.93;;;8.80;99.90;;;;;;5053382;28;20037;-63
2023/03/03 13:15:40;;;;;;;3.60;1.08;;;8.80;99.90;;;;;;5051083;28;20040;-63
2023/03/03 13:18:14;;;;;;;4.75;1.48;;;8.90;99.90;;;;;;5033709;28;20033;-64